EDDE/ERF METAR and TAF weather

Enter ICAO airport designator
Station Type Date Time Source
EDDE METAR 2019/06/18 16:50 UTC NOAA

EDDE 181650Z 05004KT CAVOK 27/13 Q1013 NOSIG


Station Type Date Time Source
EDDE Decoded METAR 2019/06/18 16:50 UTC NOAA

Erfurt-Bindersleben, Germany (EDDE) 50-59N 010-58E 322M
Jun 18, 2019 - 12:50 PM EDT / 2019.06.18 1650 UTC
Wind: from the NE (050 degrees) at 5 MPH (4 KT):0
Visibility: greater than 7 mile(s):0
Temperature: 80 F (27 C)
Dew Point: 55 F (13 C)
Relative Humidity: 41%
Pressure (altimeter): 29.91 in. Hg (1013 hPa)
ob: EDDE 181650Z 05004KT CAVOK 27/13 Q1013 NOSIG
cycle: 17

Station Type Date Time Source
EDDE TAF 2019/06/18 12:27 UTC NOAA

TAF TAF EDDE 181100Z 1812/1912 10004KT CAVOK

Example: see airport list